createdAt,value
2023-03-12T00:01:41.598Z,6.66
2023-03-12T00:04:25.547Z,6.64
2023-03-12T00:07:09.438Z,6.52
2023-03-12T00:09:53.232Z,6.64
2023-03-12T00:12:37.487Z,6.46
2023-03-12T00:15:21.463Z,6.43
2023-03-12T00:18:07.015Z,6.52
2023-03-12T00:20:55.597Z,6.46
2023-03-12T00:23:39.518Z,6.31
2023-03-12T00:26:23.864Z,6.08
2023-03-12T00:29:07.996Z,6.25
2023-03-12T00:31:51.972Z,6.15
2023-03-12T00:34:37.308Z,6.13
2023-03-12T00:37:21.480Z,6.01
2023-03-12T00:40:06.825Z,5.99
2023-03-12T00:42:50.573Z,5.87
2023-03-12T00:45:34.785Z,5.95
2023-03-12T00:48:18.813Z,5.80
2023-03-12T00:51:04.275Z,5.92
2023-03-12T00:53:48.209Z,5.77
2023-03-12T00:56:32.628Z,5.73
2023-03-12T00:59:16.822Z,5.75
2023-03-12T01:02:00.717Z,5.66
2023-03-12T01:04:44.753Z,5.40
2023-03-12T01:07:29.982Z,5.39
2023-03-12T01:10:16.474Z,5.46
2023-03-12T01:13:02.100Z,5.47
2023-03-12T01:15:45.972Z,5.33
2023-03-12T01:18:29.816Z,5.37
2023-03-12T01:21:13.597Z,5.37
2023-03-12T01:23:59.506Z,5.48
2023-03-12T01:26:43.491Z,5.32
2023-03-12T01:29:27.364Z,5.52
2023-03-12T01:32:11.134Z,5.41
2023-03-12T01:34:54.955Z,5.31
2023-03-12T01:37:38.825Z,5.40
2023-03-12T01:40:27.922Z,5.56
2023-03-12T01:43:25.742Z,5.41
2023-03-12T01:46:43.229Z,5.54
2023-03-12T01:49:39.297Z,5.41
2023-03-12T01:52:26.329Z,5.27
2023-03-12T01:55:14.792Z,5.33
2023-03-12T01:58:04.162Z,5.53
2023-03-12T02:00:48.111Z,5.46
2023-03-12T02:03:34.232Z,5.29
2023-03-12T02:06:22.470Z,5.27
2023-03-12T02:09:08.422Z,5.55
2023-03-12T02:11:52.287Z,5.58
2023-03-12T02:14:39.147Z,5.50
2023-03-12T02:17:23.652Z,5.66
2023-03-12T02:20:18.540Z,5.32
2023-03-12T02:23:10.098Z,5.30
2023-03-12T02:25:57.714Z,5.19
2023-03-12T02:28:44.283Z,5.10
2023-03-12T02:31:34.271Z,5.29
2023-03-12T02:34:18.452Z,5.22
2023-03-12T02:37:03.652Z,5.06
2023-03-12T02:39:54.731Z,4.86
2023-03-12T02:42:40.636Z,5.02
2023-03-12T02:45:27.255Z,4.72
2023-03-12T02:48:11.170Z,4.78
2023-03-12T02:50:55.064Z,4.72
2023-03-12T02:53:38.950Z,5.00
2023-03-12T02:56:24.282Z,4.92
2023-03-12T02:59:10.654Z,4.79
2023-03-12T03:02:01.057Z,4.76
2023-03-12T03:04:45.024Z,4.50
2023-03-12T03:07:28.780Z,4.59
2023-03-12T03:10:13.008Z,4.64
2023-03-12T03:12:57.853Z,4.59
2023-03-12T03:15:43.228Z,4.81
2023-03-12T03:18:27.277Z,4.59
2023-03-12T03:21:16.614Z,4.68
2023-03-12T03:24:01.437Z,4.67
2023-03-12T03:26:45.428Z,4.84
2023-03-12T03:29:29.868Z,4.53
2023-03-12T03:32:15.556Z,4.38
2023-03-12T03:35:00.537Z,4.51
2023-03-12T03:37:46.344Z,4.32
2023-03-12T03:40:30.224Z,4.10
2023-03-12T03:43:14.285Z,4.21
2023-03-12T03:45:59.214Z,4.18
2023-03-12T03:48:45.003Z,4.10
2023-03-12T03:51:29.911Z,4.26
2023-03-12T03:54:19.451Z,4.22
2023-03-12T03:57:03.350Z,4.22
2023-03-12T03:59:47.477Z,4.31
2023-03-12T04:02:31.371Z,4.25
2023-03-12T04:05:19.655Z,4.12
2023-03-12T04:08:05.489Z,4.25
2023-03-12T04:10:50.304Z,4.36
2023-03-12T04:13:34.374Z,3.79
2023-03-12T04:16:19.690Z,4.25
2023-03-12T04:19:05.194Z,4.13
2023-03-12T04:21:50.666Z,4.23
2023-03-12T04:24:35.019Z,4.17
2023-03-12T04:27:19.342Z,4.41
2023-03-12T04:30:03.167Z,4.40
2023-03-12T04:32:48.739Z,3.40
2023-03-12T04:35:32.817Z,4.30
2023-03-12T04:38:18.042Z,4.56
2023-03-12T04:41:04.781Z,4.29
2023-03-12T04:43:49.173Z,4.40
2023-03-12T04:46:34.568Z,4.31
2023-03-12T04:49:18.640Z,4.26
2023-03-12T04:52:03.049Z,4.31
2023-03-12T04:54:48.516Z,4.45
2023-03-12T04:57:32.401Z,4.31
2023-03-12T05:00:17.908Z,4.23
2023-03-12T05:03:03.570Z,4.40
2023-03-12T05:05:48.147Z,4.43
2023-03-12T05:08:32.537Z,4.26
2023-03-12T05:11:18.223Z,4.33
2023-03-12T05:14:02.017Z,4.28
2023-03-12T05:16:46.849Z,4.42
2023-03-12T05:19:30.808Z,4.48
2023-03-12T05:22:14.712Z,4.22
2023-03-12T05:24:58.620Z,4.35
2023-03-12T05:27:44.239Z,4.32
2023-03-12T05:30:29.725Z,4.43
2023-03-12T05:33:14.349Z,4.60
2023-03-12T05:35:58.253Z,4.45
2023-03-12T05:38:43.587Z,4.72
2023-03-12T05:41:30.773Z,4.62
2023-03-12T05:44:22.339Z,4.54
2023-03-12T05:47:10.691Z,4.76
2023-03-12T05:49:56.550Z,4.66
2023-03-12T05:52:40.560Z,4.91
2023-03-12T05:55:24.599Z,4.89
2023-03-12T05:58:11.072Z,4.59
2023-03-12T06:00:57.152Z,4.87
2023-03-12T06:03:43.032Z,4.63
2023-03-12T06:06:27.231Z,4.84
2023-03-12T06:09:11.446Z,4.65
2023-03-12T06:11:55.278Z,5.00
2023-03-12T06:14:39.329Z,4.74
2023-03-12T06:17:25.331Z,4.84
2023-03-12T06:20:10.839Z,5.02
2023-03-12T06:22:54.943Z,5.03
2023-03-12T06:25:38.948Z,5.48
2023-03-12T06:28:22.788Z,5.51
2023-03-12T06:31:07.622Z,5.74
2023-03-12T06:33:53.809Z,5.96
2023-03-12T06:36:37.833Z,6.70
2023-03-12T06:39:21.730Z,6.83
2023-03-12T06:42:05.888Z,6.89
2023-03-12T06:44:49.712Z,6.45
2023-03-12T06:47:33.689Z,6.88
2023-03-12T06:50:19.050Z,6.53
2023-03-12T06:53:02.974Z,6.87
2023-03-12T06:55:47.681Z,6.50
2023-03-12T06:58:32.016Z,6.61
2023-03-12T07:01:15.844Z,6.84
2023-03-12T07:03:59.826Z,6.86
2023-03-12T07:06:50.496Z,7.19
2023-03-12T07:09:34.615Z,7.10
2023-03-12T07:12:18.527Z,7.34
2023-03-12T07:15:02.326Z,6.75
2023-03-12T07:17:46.932Z,6.62
2023-03-12T07:20:30.918Z,6.96
2023-03-12T07:23:16.614Z,6.62
2023-03-12T07:26:00.494Z,6.90
2023-03-12T07:28:44.379Z,6.84
2023-03-12T07:31:28.465Z,7.21
2023-03-12T07:34:12.570Z,6.90
2023-03-12T07:36:56.562Z,6.54
2023-03-12T07:39:41.997Z,6.84
2023-03-12T07:42:26.409Z,6.52
2023-03-12T07:45:13.479Z,6.90
2023-03-12T07:47:57.420Z,7.01
2023-03-12T07:50:41.251Z,6.76
2023-03-12T07:53:25.200Z,7.58
2023-03-12T07:56:10.932Z,7.59
2023-03-12T07:58:55.479Z,7.83
2023-03-12T08:01:39.351Z,7.76
2023-03-12T08:04:23.837Z,7.80
2023-03-12T08:07:09.393Z,7.93
2023-03-12T08:09:53.610Z,7.44
2023-03-12T08:12:38.963Z,7.33
2023-03-12T08:15:22.752Z,7.11
2023-03-12T08:18:06.723Z,7.36
2023-03-12T08:20:52.777Z,7.45
2023-03-12T08:23:36.833Z,7.92
2023-03-12T08:26:20.599Z,7.92
2023-03-12T08:29:05.842Z,7.94
2023-03-12T08:32:03.737Z,8.37
2023-03-12T08:34:48.732Z,7.77
2023-03-12T08:37:33.011Z,7.54
2023-03-12T08:40:17.053Z,7.57
2023-03-12T08:43:01.186Z,8.17
2023-03-12T08:45:46.501Z,7.77
2023-03-12T08:48:32.817Z,7.18
2023-03-12T08:51:17.245Z,7.74
2023-03-12T08:54:01.093Z,8.10
2023-03-12T08:56:46.679Z,8.29
2023-03-12T08:59:30.718Z,7.69
2023-03-12T09:02:15.939Z,7.75
2023-03-12T09:04:59.765Z,8.11
2023-03-12T09:07:43.873Z,7.94
2023-03-12T09:10:30.785Z,8.45
2023-03-12T09:13:14.997Z,8.04
2023-03-12T09:16:02.979Z,8.47
2023-03-12T09:18:48.218Z,9.19
2023-03-12T09:21:31.981Z,9.26
2023-03-12T09:24:15.945Z,9.19
2023-03-12T09:26:59.841Z,8.51
2023-03-12T09:29:57.231Z,8.97
2023-03-12T09:32:44.767Z,8.72
2023-03-12T09:35:31.494Z,8.75
2023-03-12T09:38:15.630Z,8.80
2023-03-12T09:41:00.159Z,8.74
2023-03-12T09:43:49.791Z,8.86
2023-03-12T09:46:38.950Z,8.52
2023-03-12T09:49:32.037Z,8.29
2023-03-12T09:52:25.443Z,8.81
2023-03-12T09:55:15.692Z,9.33
2023-03-12T09:57:59.501Z,9.38
2023-03-12T10:00:43.524Z,9.17
2023-03-12T10:03:56.121Z,9.04
2023-03-12T10:06:47.202Z,9.20
2023-03-12T10:09:47.671Z,9.69
2023-03-12T10:12:47.435Z,9.33
2023-03-12T10:15:43.609Z,9.42
2023-03-12T10:18:38.866Z,9.05
2023-03-12T10:21:30.890Z,9.06
2023-03-12T10:24:31.574Z,9.50
2023-03-12T10:27:18.994Z,9.33
2023-03-12T10:30:05.865Z,9.22
2023-03-12T10:32:51.894Z,9.31
2023-03-12T10:35:36.564Z,9.53
2023-03-12T10:38:29.244Z,9.69
2023-03-12T10:41:18.491Z,9.62
2023-03-12T10:44:08.857Z,9.77
2023-03-12T10:47:09.349Z,9.68
2023-03-12T10:49:53.538Z,9.94
2023-03-12T10:52:37.446Z,9.76
2023-03-12T10:55:24.807Z,9.78
2023-03-12T10:58:08.650Z,9.66
2023-03-12T11:00:59.372Z,9.89
2023-03-12T11:03:43.769Z,9.91
2023-03-12T11:06:30.158Z,10.45
2023-03-12T11:09:19.355Z,10.15
2023-03-12T11:12:03.303Z,9.60
2023-03-12T11:14:48.194Z,9.73
2023-03-12T11:17:33.492Z,9.86
2023-03-12T11:20:27.813Z,9.63
2023-03-12T11:23:16.406Z,9.82
2023-03-12T11:26:03.096Z,10.50
2023-03-12T11:28:49.430Z,10.65
2023-03-12T11:31:38.777Z,11.07
2023-03-12T11:34:28.409Z,10.06
2023-03-12T11:37:16.248Z,10.53
2023-03-12T11:40:14.309Z,10.47
2023-03-12T11:43:35.978Z,10.00
2023-03-12T11:46:36.342Z,10.28
2023-03-12T11:49:35.741Z,10.50
2023-03-12T11:52:29.656Z,10.42
2023-03-12T11:55:45.996Z,10.59
2023-03-12T11:58:48.821Z,10.83
2023-03-12T12:01:41.604Z,11.59
2023-03-12T12:05:00.542Z,11.10
2023-03-12T12:07:55.784Z,11.58
2023-03-12T12:10:51.010Z,10.63
2023-03-12T12:13:44.286Z,10.55
2023-03-12T12:16:43.097Z,10.73
2023-03-12T12:19:39.345Z,11.32
2023-03-12T12:22:37.447Z,11.42
2023-03-12T12:25:29.433Z,10.66
2023-03-12T12:28:29.942Z,10.52
2023-03-12T12:31:40.662Z,10.68
2023-03-12T12:34:52.023Z,9.95
2023-03-12T12:37:48.719Z,10.05
2023-03-12T12:40:38.169Z,9.82
2023-03-12T12:43:28.346Z,9.80
2023-03-12T12:46:18.467Z,9.65
2023-03-12T12:49:07.599Z,9.97
2023-03-12T12:51:57.833Z,9.91
2023-03-12T12:54:56.761Z,10.13
2023-03-12T12:57:47.278Z,10.20
2023-03-12T13:00:47.366Z,10.03
2023-03-12T13:03:32.007Z,10.24
2023-03-12T13:06:15.903Z,10.48
2023-03-12T13:09:15.814Z,10.16
2023-03-12T13:12:08.759Z,10.42
2023-03-12T13:14:53.527Z,10.27
2023-03-12T13:17:58.027Z,10.56
2023-03-12T13:20:48.489Z,10.59
2023-03-12T13:23:38.057Z,10.57
2023-03-12T13:26:27.246Z,9.91
2023-03-12T13:29:24.759Z,10.59
2023-03-12T13:32:27.292Z,10.62
2023-03-12T13:35:33.222Z,10.90
2023-03-12T13:38:35.056Z,10.47
2023-03-12T13:41:32.404Z,10.94
2023-03-12T13:44:33.127Z,10.62
2023-03-12T13:47:24.174Z,10.30
2023-03-12T13:50:11.909Z,10.25
2023-03-12T13:53:04.322Z,10.04
2023-03-12T13:56:00.647Z,9.98
2023-03-12T13:58:51.254Z,9.85
2023-03-12T14:01:41.907Z,9.30
2023-03-12T14:04:32.799Z,9.39
2023-03-12T14:07:49.329Z,9.84
2023-03-12T14:10:48.990Z,9.47
2023-03-12T14:13:56.743Z,9.08
2023-03-12T14:16:45.948Z,9.60
2023-03-12T14:19:32.120Z,9.54
2023-03-12T14:22:16.490Z,9.67
2023-03-12T14:25:05.380Z,9.47
2023-03-12T14:27:50.213Z,9.81
2023-03-12T14:30:44.142Z,9.83
2023-03-12T14:33:35.342Z,9.85
2023-03-12T14:36:21.682Z,9.77
2023-03-12T14:39:20.059Z,9.79
2023-03-12T14:42:06.960Z,9.44
2023-03-12T14:44:58.840Z,9.31
2023-03-12T14:47:43.237Z,9.18
2023-03-12T14:50:31.324Z,9.56
2023-03-12T14:53:24.574Z,9.72
2023-03-12T14:56:14.423Z,9.51
2023-03-12T14:58:59.749Z,9.47
2023-03-12T15:01:46.391Z,9.70
2023-03-12T15:04:32.504Z,9.50
2023-03-12T15:07:23.286Z,9.37
2023-03-12T15:10:17.315Z,9.18
2023-03-12T15:13:02.560Z,9.38
2023-03-12T15:15:49.796Z,9.44
2023-03-12T15:18:34.887Z,9.49
2023-03-12T15:21:19.146Z,9.31
2023-03-12T15:24:05.473Z,9.45
2023-03-12T15:26:49.508Z,9.62
2023-03-12T15:29:33.360Z,9.50
2023-03-12T15:32:20.663Z,9.66
2023-03-12T15:35:14.691Z,9.69
2023-03-12T15:37:59.052Z,9.50
2023-03-12T15:40:50.123Z,9.41
2023-03-12T15:43:35.501Z,9.30
2023-03-12T15:46:20.142Z,9.05
2023-03-12T15:49:04.321Z,8.84
2023-03-12T15:51:59.796Z,9.17
2023-03-12T15:54:43.596Z,9.02
2023-03-12T15:57:30.349Z,9.17
2023-03-12T16:00:21.955Z,9.34
2023-03-12T16:03:07.711Z,9.40
2023-03-12T16:05:52.153Z,9.29
2023-03-12T16:08:41.405Z,9.24
2023-03-12T16:11:27.726Z,8.70
2023-03-12T16:14:18.818Z,8.70
2023-03-12T16:17:02.884Z,8.97
2023-03-12T16:19:46.750Z,8.87
2023-03-12T16:22:30.905Z,8.14
2023-03-12T16:25:14.987Z,8.29
2023-03-12T16:28:01.998Z,8.49
2023-03-12T16:30:47.696Z,8.37
2023-03-12T16:33:31.640Z,8.62
2023-03-12T16:36:17.775Z,8.67
2023-03-12T16:39:01.596Z,8.47
2023-03-12T16:41:45.609Z,8.67
2023-03-12T16:44:32.994Z,8.86
2023-03-12T16:47:18.099Z,8.67
2023-03-12T16:50:02.173Z,8.38
2023-03-12T16:52:48.107Z,8.07
2023-03-12T16:55:44.279Z,8.36
2023-03-12T16:58:28.844Z,8.41
2023-03-12T17:01:14.700Z,8.22
2023-03-12T17:04:00.068Z,8.35
2023-03-12T17:06:43.998Z,8.33
2023-03-12T17:09:27.860Z,8.00
2023-03-12T17:12:20.865Z,7.92
2023-03-12T17:15:07.007Z,7.96
2023-03-12T17:17:51.521Z,8.10
2023-03-12T17:20:36.693Z,8.01
2023-03-12T17:23:21.255Z,8.03
2023-03-12T17:26:05.556Z,8.15
2023-03-12T17:28:49.431Z,8.08
2023-03-12T17:31:33.540Z,8.20
2023-03-12T17:34:17.965Z,7.82
2023-03-12T17:37:03.722Z,7.69
2023-03-12T17:39:48.988Z,8.11
2023-03-12T17:42:34.421Z,8.20
2023-03-12T17:45:18.630Z,8.36
2023-03-12T17:48:02.516Z,7.92
2023-03-12T17:50:46.622Z,8.26
2023-03-12T17:53:31.780Z,8.41
2023-03-12T17:56:18.023Z,8.34
2023-03-12T17:59:01.929Z,8.46
2023-03-12T18:01:45.927Z,8.19
2023-03-12T18:04:29.857Z,7.83
2023-03-12T18:07:13.828Z,7.95
2023-03-12T18:09:59.194Z,8.20
2023-03-12T18:12:43.415Z,8.17
2023-03-12T18:15:27.388Z,8.38
2023-03-12T18:18:11.365Z,7.51
2023-03-12T18:20:55.399Z,8.31
2023-03-12T18:23:39.277Z,8.34
2023-03-12T18:26:24.538Z,7.86
2023-03-12T18:29:08.605Z,7.49
2023-03-12T18:31:52.516Z,7.43
2023-03-12T18:34:37.718Z,7.65
2023-03-12T18:37:23.043Z,7.83
2023-03-12T18:40:08.336Z,7.65
2023-03-12T18:42:53.599Z,7.52
2023-03-12T18:45:43.080Z,7.09
2023-03-12T18:48:27.287Z,7.17
2023-03-12T18:51:11.165Z,7.19
2023-03-12T18:53:55.528Z,7.32
2023-03-12T18:56:40.992Z,7.40
2023-03-12T18:59:26.358Z,7.13
2023-03-12T19:02:10.520Z,6.90
2023-03-12T19:04:56.278Z,7.18
2023-03-12T19:07:41.246Z,7.41
2023-03-12T19:10:25.411Z,7.46
2023-03-12T19:13:09.566Z,7.18
2023-03-12T19:16:01.102Z,7.62
2023-03-12T19:18:45.247Z,7.38
2023-03-12T19:21:29.649Z,7.52
2023-03-12T19:24:13.861Z,7.55
2023-03-12T19:26:58.089Z,7.43
2023-03-12T19:29:42.256Z,7.27
2023-03-12T19:32:40.683Z,7.33
2023-03-12T19:35:27.767Z,7.13
2023-03-12T19:38:11.752Z,7.17
2023-03-12T19:40:56.949Z,6.47
2023-03-12T19:43:41.464Z,6.30
2023-03-12T19:46:25.807Z,6.40
2023-03-12T19:49:11.201Z,6.20
2023-03-12T19:51:55.156Z,6.10
2023-03-12T19:54:39.360Z,5.99
2023-03-12T19:57:23.456Z,5.67
2023-03-12T20:00:12.426Z,5.55
2023-03-12T20:02:57.334Z,5.40
2023-03-12T20:05:45.964Z,4.88
2023-03-12T20:08:32.951Z,4.93
2023-03-12T20:11:17.008Z,4.90
2023-03-12T20:14:00.840Z,4.93
2023-03-12T20:16:44.780Z,4.47
2023-03-12T20:19:29.243Z,4.58
2023-03-12T20:22:14.884Z,4.48
2023-03-12T20:24:58.839Z,4.55
2023-03-12T20:27:42.742Z,4.33
2023-03-12T20:30:26.738Z,4.27
2023-03-12T20:33:10.753Z,4.31
2023-03-12T20:35:56.181Z,4.02
2023-03-12T20:38:41.499Z,4.16
2023-03-12T20:41:25.426Z,4.20
2023-03-12T20:44:09.348Z,4.18
2023-03-12T20:46:53.434Z,4.11
2023-03-12T20:49:37.472Z,3.85
2023-03-12T20:52:21.345Z,3.98
2023-03-12T20:55:07.664Z,3.88
2023-03-12T20:57:51.626Z,3.86
2023-03-12T21:00:35.764Z,3.98
2023-03-12T21:03:19.918Z,4.06
2023-03-12T21:06:04.286Z,4.04
2023-03-12T21:08:48.058Z,3.95
2023-03-12T21:11:33.286Z,3.75
2023-03-12T21:14:17.073Z,3.74
2023-03-12T21:17:00.941Z,3.87
2023-03-12T21:19:44.775Z,3.73
2023-03-12T21:22:31.522Z,3.55
2023-03-12T21:25:15.784Z,3.52
2023-03-12T21:28:00.995Z,3.28
2023-03-12T21:30:45.005Z,3.38
2023-03-12T21:33:28.823Z,3.53
2023-03-12T21:36:14.559Z,3.54
2023-03-12T21:38:58.312Z,3.51
2023-03-12T21:41:42.035Z,3.58
2023-03-12T21:44:27.382Z,3.48
2023-03-12T21:47:11.108Z,3.43
2023-03-12T21:49:54.981Z,3.20
2023-03-12T21:52:42.990Z,3.18
2023-03-12T21:55:27.070Z,3.19
2023-03-12T21:58:10.804Z,3.24
2023-03-12T22:01:03.638Z,3.29
2023-03-12T22:03:48.109Z,3.28
2023-03-12T22:06:31.876Z,3.21
2023-03-12T22:09:15.587Z,3.30
2023-03-12T22:11:59.358Z,3.31
2023-03-12T22:14:43.044Z,3.25
2023-03-12T22:17:28.222Z,3.26
2023-03-12T22:20:12.963Z,3.29
2023-03-12T22:22:56.758Z,3.27
2023-03-12T22:25:40.676Z,3.40
2023-03-12T22:28:25.838Z,3.42
2023-03-12T22:31:10.870Z,3.34
2023-03-12T22:33:56.348Z,3.00
2023-03-12T22:36:40.155Z,3.26
2023-03-12T22:39:24.118Z,3.27
2023-03-12T22:42:08.057Z,3.28
2023-03-12T22:44:51.867Z,3.35
2023-03-12T22:47:35.705Z,3.06
2023-03-12T22:50:21.234Z,2.77
2023-03-12T22:53:05.115Z,3.09
2023-03-12T22:55:48.982Z,3.10
2023-03-12T22:58:32.947Z,2.93
2023-03-12T23:01:18.715Z,3.18
2023-03-12T23:04:04.145Z,3.17
2023-03-12T23:06:49.630Z,2.99
2023-03-12T23:09:33.661Z,2.93
2023-03-12T23:12:17.369Z,3.08
2023-03-12T23:15:01.163Z,3.14
2023-03-12T23:17:44.973Z,2.98
2023-03-12T23:20:28.813Z,2.78
2023-03-12T23:23:15.948Z,3.01
2023-03-12T23:26:01.613Z,3.01
2023-03-12T23:28:47.365Z,3.12
2023-03-12T23:31:31.516Z,3.16
2023-03-12T23:34:15.281Z,3.22
2023-03-12T23:36:59.378Z,3.18
2023-03-12T23:39:54.073Z,3.00
2023-03-12T23:42:38.963Z,2.72
2023-03-12T23:45:23.046Z,3.22
2023-03-12T23:48:08.023Z,3.20
2023-03-12T23:50:51.791Z,3.21
2023-03-12T23:53:36.733Z,3.19
2023-03-12T23:56:24.474Z,3.15
2023-03-12T23:59:10.571Z,3.21
